This is the latest recevied weather packets stored in our database for station/object 9M2GDD-1. If no packets are shown the sender has not sent any weather packets the latest 10 day(s).
| Time | Temp. | Humidity | Pressure | Rain* | Wind** | Luminosity | Snow |
|---|---|---|---|---|---|---|---|
| 1787638104 | 30° C | 72% | 1014.5 hPa | - | - | - | - |
| 1787637204 | 30.56° C | 72% | 1014.7 hPa | - | - | - | - |
| 1787636304 | 30.56° C | 74% | 1014.9 hPa | - | - | - | - |
| 1787635404 | 30° C | 75% | 1015 hPa | - | - | - | - |
| 1787634504 | 30° C | 76% | 1015.3 hPa | - | - | - | - |
| 1787633603 | 30° C | 77% | 1015.8 hPa | - | - | - | - |
| 1787632703 | 30° C | 76% | 1015.7 hPa | - | - | - | - |
| 1787631803 | 30° C | 77% | 1015.8 hPa | - | - | - | - |
| 1787630903 | 30° C | 76% | 1015.8 hPa | - | - | - | - |
| 1787630003 | 30° C | 77% | 1016.1 hPa | - | - | - | - |
| 1787629103 | 30° C | 78% | 1016.3 hPa | - | - | - | - |
| 1787628203 | 29.44° C | 79% | 1016.4 hPa | - | - | - | - |
| 1787627303 | 28.89° C | 81% | 1016.6 hPa | - | - | - | - |
| 1787626403 | 28.89° C | 81% | 1016.7 hPa | - | - | - | - |
| 1787625503 | 28.33° C | 84% | 1016.7 hPa | - | - | - | - |
| 1787624603 | 28.33° C | 83% | 1016.5 hPa | - | - | - | - |
| 1787623702 | 27.78° C | 87% | 1016.4 hPa | - | - | - | - |
| 1787622802 | 27.22° C | 91% | 1016.5 hPa | - | - | - | - |
| 1787621902 | 27.78° C | 85% | 1016.6 hPa | - | - | - | - |
| 1787621002 | 26.67° C | 88% | 1016.4 hPa | - | - | - | - |
| 1787620102 | 26.67° C | 88% | 1016.3 hPa | - | - | - | - |
| 1787619202 | 26.67° C | 87% | 1016.2 hPa | - | - | - | - |
| 1787618302 | 26.67° C | 87% | 1016.5 hPa | - | - | - | - |
| 1787617402 | 26.67° C | 88% | 1016.3 hPa | - | - | - | - |
| 1787616502 | 27.22° C | 85% | 1016.2 hPa | - | - | - | - |
* Rain since midnight (hover to see other rain measurements)
** Current wind speed in m/s (hover to see current wind gust speed)